Time;durP1;ratioP1;P1;durP2;ratioP2;P2;SDS_P1;SDS_P2;PMS_P1;PMS_P2;Temp;Humidity;BMP_temperature;BMP_pressure;BME280_temperature;BME280_humidity;BME280_pressure;Samples;Min_cycle;Max_cycle;Signal;HPM_P1;HPM_P2
2022/08/28 00:00:23;;;;;;;22.93;21.03;;;21.30;50.00;;;;;;5055188;28;20711;-54
2022/08/28 00:02:49;;;;;;;21.63;20.03;;;21.30;50.30;;;;;;5055162;28;20437;-54
2022/08/28 00:05:17;;;;;;;22.10;20.20;;;21.20;50.60;;;;;;5054575;28;20494;-53
2022/08/28 00:07:43;;;;;;;22.13;20.33;;;21.30;50.80;;;;;;5055441;28;20797;-52
2022/08/28 00:10:12;;;;;;;24.10;22.00;;;21.30;50.60;;;;;;5055598;28;20425;-51
2022/08/28 00:12:38;;;;;;;23.33;21.10;;;21.30;50.50;;;;;;5054571;28;20446;-57
2022/08/28 00:15:08;;;;;;;23.10;21.33;;;21.30;50.10;;;;;;5055219;28;20464;-53
2022/08/28 00:17:34;;;;;;;21.33;19.70;;;21.30;50.00;;;;;;5054954;28;20433;-51
2022/08/28 00:20:00;;;;;;;21.57;19.80;;;21.30;50.20;;;;;;5054978;28;20959;-54
2022/08/28 00:22:25;;;;;;;22.63;20.93;;;21.30;50.20;;;;;;5051988;28;20180;-44
2022/08/28 00:24:51;;;;;;;21.80;20.10;;;21.20;50.00;;;;;;5070816;28;20602;-44
2022/08/28 00:30:01;;;;;;;22.27;20.67;;;21.20;50.50;;;;;;5073135;28;20237;-54
2022/08/28 00:32:27;;;;;;;21.63;20.17;;;21.20;50.50;;;;;;5051885;28;20926;-55
2022/08/28 00:34:53;;;;;;;21.97;20.20;;;21.10;50.20;;;;;;5072175;28;20195;-56
2022/08/28 00:37:18;;;;;;;21.27;19.67;;;21.10;51.40;;;;;;5054524;28;21070;-55
2022/08/28 00:39:45;;;;;;;22.47;20.67;;;21.10;51.20;;;;;;5071724;28;20192;-56
2022/08/28 00:42:11;;;;;;;22.03;20.40;;;21.10;51.00;;;;;;5051340;28;20314;-54
2022/08/28 00:44:37;;;;;;;23.10;21.40;;;21.10;50.60;;;;;;5052617;28;20492;-56
2022/08/28 00:47:03;;;;;;;22.17;20.33;;;21.10;50.90;;;;;;5055148;28;20476;-55
2022/08/28 00:49:34;;;;;;;23.13;21.43;;;21.10;51.00;;;;;;5055096;28;20839;-52
2022/08/28 00:52:06;;;;;;;22.00;20.50;;;21.10;51.00;;;;;;5054309;28;20486;-51
2022/08/28 00:54:35;;;;;;;25.10;21.03;;;21.10;50.80;;;;;;5054982;28;20437;-56
2022/08/28 00:57:03;;;;;;;21.37;19.80;;;21.10;51.40;;;;;;5054442;28;20447;-54
2022/08/28 00:59:29;;;;;;;20.43;18.93;;;21.10;51.40;;;;;;5051856;28;20438;-43
2022/08/28 01:01:57;;;;;;;21.00;19.20;;;21.10;51.40;;;;;;5051935;28;21025;-52
2022/08/28 01:04:25;;;;;;;21.57;19.97;;;21.10;51.00;;;;;;5053655;28;20199;-54
2022/08/28 01:06:54;;;;;;;21.77;20.03;;;21.10;51.00;;;;;;5052240;28;20456;-51
2022/08/28 01:09:26;;;;;;;21.97;20.07;;;21.10;51.30;;;;;;5053259;28;20476;-52
2022/08/28 01:11:55;;;;;;;21.93;20.20;;;21.10;51.40;;;;;;5069552;28;20429;-56
2022/08/28 01:14:22;;;;;;;23.70;21.90;;;21.10;51.20;;;;;;5053085;28;20425;-53
2022/08/28 01:16:54;;;;;;;22.23;20.30;;;21.10;51.40;;;;;;5051115;28;20437;-55
2022/08/28 01:19:36;;;;;;;21.27;19.87;;;21.10;51.40;;;;;;5061806;28;20466;-53
2022/08/28 01:22:20;;;;;;;21.43;19.80;;;21.10;51.40;;;;;;5052960;28;20472;-57
2022/08/28 01:24:48;;;;;;;21.47;19.77;;;21.00;51.30;;;;;;5050520;28;20489;-47
2022/08/28 01:27:14;;;;;;;22.33;20.70;;;21.00;51.30;;;;;;5052504;28;20495;-47
2022/08/28 01:29:40;;;;;;;23.23;21.23;;;21.00;51.30;;;;;;5053339;28;20941;-47
2022/08/28 01:32:05;;;;;;;23.23;19.60;;;21.00;51.30;;;;;;5050197;28;20427;-43
2022/08/28 01:34:32;;;;;;;20.77;19.20;;;21.00;51.70;;;;;;5051109;28;20273;-47
2022/08/28 01:36:58;;;;;;;21.07;19.37;;;21.00;51.70;;;;;;5053545;28;20644;-51
2022/08/28 01:39:25;;;;;;;20.43;18.80;;;21.10;52.00;;;;;;5047681;28;20434;-47
2022/08/28 01:41:53;;;;;;;22.50;20.90;;;21.10;51.70;;;;;;5050097;28;20453;-47
2022/08/28 01:44:23;;;;;;;21.87;20.20;;;21.00;51.60;;;;;;5050317;28;20966;-45
2022/08/28 01:46:54;;;;;;;21.83;20.13;;;21.10;51.40;;;;;;5050145;28;20425;-44
2022/08/28 01:49:20;;;;;;;22.40;20.60;;;21.00;51.30;;;;;;5069478;28;20421;-44
2022/08/28 01:51:46;;;;;;;21.30;19.80;;;21.00;51.30;;;;;;5053672;28;20434;-43
2022/08/28 01:54:12;;;;;;;22.73;20.80;;;21.00;51.50;;;;;;5050114;28;20433;-47
2022/08/28 01:56:39;;;;;;;21.27;19.63;;;21.00;51.60;;;;;;5070302;28;20179;-46
2022/08/28 01:59:07;;;;;;;22.00;20.30;;;21.00;51.80;;;;;;5049979;28;20465;-57
2022/08/28 02:01:34;;;;;;;22.23;20.37;;;21.00;51.70;;;;;;5052965;28;20437;-55
2022/08/28 02:04:03;;;;;;;21.87;20.07;;;21.00;51.70;;;;;;5053266;28;20553;-56
2022/08/28 02:06:29;;;;;;;23.57;21.67;;;21.00;51.30;;;;;;5054422;28;20426;-56
2022/08/28 02:08:54;;;;;;;22.13;20.53;;;20.90;52.00;;;;;;5053759;28;20421;-46
2022/08/28 02:11:23;;;;;;;21.10;19.57;;;20.90;51.90;;;;;;5054731;28;20509;-44
2022/08/28 02:13:50;;;;;;;22.30;20.17;;;20.90;52.20;;;;;;5037158;28;20516;-42
2022/08/28 02:16:17;;;;;;;23.80;21.97;;;20.90;52.30;;;;;;5053939;28;20425;-45
2022/08/28 02:18:42;;;;;;;22.40;20.43;;;20.90;52.20;;;;;;5037462;28;20503;-43
2022/08/28 02:21:09;;;;;;;22.23;20.47;;;20.90;52.20;;;;;;5070605;28;20990;-46
2022/08/28 02:23:37;;;;;;;22.27;20.30;;;21.00;52.50;;;;;;5046958;28;20563;-54
2022/08/28 02:26:03;;;;;;;21.77;20.10;;;21.00;52.50;;;;;;5034570;28;20426;-49
2022/08/28 02:28:28;;;;;;;21.13;19.30;;;21.00;52.60;;;;;;5038113;28;20422;-42
2022/08/28 02:30:54;;;;;;;22.17;20.53;;;21.00;52.30;;;;;;5051227;28;20183;-43
2022/08/28 02:33:20;;;;;;;21.93;20.13;;;21.00;52.40;;;;;;5040970;28;20539;-43
2022/08/28 02:35:45;;;;;;;23.17;21.47;;;21.00;52.50;;;;;;5050660;28;20201;-44
2022/08/28 02:38:11;;;;;;;21.67;20.00;;;21.00;52.30;;;;;;5045563;28;20179;-50
2022/08/28 02:40:37;;;;;;;21.57;20.00;;;21.00;52.50;;;;;;5053937;28;20186;-45
2022/08/28 02:43:04;;;;;;;22.47;20.23;;;21.00;52.20;;;;;;5034745;28;20214;-45
2022/08/28 02:45:30;;;;;;;21.63;19.90;;;21.00;52.30;;;;;;5034246;28;20176;-44
2022/08/28 02:47:56;;;;;;;22.47;20.70;;;20.90;52.20;;;;;;5044931;28;20438;-42
2022/08/28 02:50:23;;;;;;;23.00;20.47;;;20.90;52.60;;;;;;5053350;28;20705;-42
2022/08/28 02:52:50;;;;;;;22.10;20.37;;;20.90;52.40;;;;;;5036242;28;20878;-43
2022/08/28 02:55:17;;;;;;;21.83;19.90;;;20.90;52.70;;;;;;5044641;28;20429;-42
2022/08/28 02:57:44;;;;;;;22.10;20.40;;;20.90;52.80;;;;;;5050059;28;20441;-46
2022/08/28 03:00:13;;;;;;;22.33;20.67;;;20.90;52.90;;;;;;5041637;28;20453;-45
2022/08/28 03:02:40;;;;;;;20.90;19.40;;;20.90;52.90;;;;;;5033844;28;20498;-46
2022/08/28 03:05:07;;;;;;;21.83;19.97;;;20.90;52.90;;;;;;5038428;28;20492;-47
2022/08/28 03:07:34;;;;;;;22.07;20.23;;;20.90;53.00;;;;;;5049752;28;20422;-46
2022/08/28 03:10:00;;;;;;;23.00;20.87;;;20.90;53.30;;;;;;5041860;28;20457;-43
2022/08/28 03:12:26;;;;;;;21.80;20.20;;;20.90;53.20;;;;;;5033740;28;20472;-45
2022/08/28 03:14:52;;;;;;;21.40;19.57;;;20.90;53.30;;;;;;5051569;28;20437;-46
2022/08/28 03:17:19;;;;;;;24.47;22.60;;;21.00;53.00;;;;;;5048571;28;20251;-44
2022/08/28 03:19:44;;;;;;;23.30;21.30;;;21.00;52.90;;;;;;5033937;28;20442;-46
2022/08/28 03:22:11;;;;;;;21.93;19.90;;;21.00;52.70;;;;;;5038048;28;20962;-45
2022/08/28 03:24:37;;;;;;;23.80;21.83;;;21.00;53.10;;;;;;5052724;28;20578;-46
2022/08/28 03:27:04;;;;;;;21.60;19.93;;;21.00;53.00;;;;;;5050047;28;20418;-44
2022/08/28 03:29:30;;;;;;;22.93;21.03;;;20.90;53.10;;;;;;5034303;28;20183;-46
2022/08/28 03:31:56;;;;;;;22.83;21.23;;;21.00;52.80;;;;;;5037525;28;20409;-44
2022/08/28 03:34:21;;;;;;;21.87;20.13;;;21.00;52.90;;;;;;5054004;28;20449;-49
2022/08/28 03:36:47;;;;;;;22.77;20.60;;;21.00;52.60;;;;;;5048618;28;20956;-43
2022/08/28 03:39:13;;;;;;;22.43;20.40;;;21.00;52.50;;;;;;5037484;28;20317;-49
2022/08/28 03:41:39;;;;;;;23.00;21.27;;;21.00;53.10;;;;;;5037674;28;20234;-49
2022/08/28 03:44:05;;;;;;;26.53;21.40;;;21.00;53.00;;;;;;5040694;28;20201;-48
2022/08/28 03:46:32;;;;;;;22.93;21.07;;;20.90;52.90;;;;;;5050695;28;20423;-43
2022/08/28 03:49:01;;;;;;;22.50;20.80;;;20.90;53.50;;;;;;5055276;28;20409;-48
2022/08/28 03:51:30;;;;;;;22.03;20.20;;;21.00;53.30;;;;;;5055668;28;20406;-44
2022/08/28 03:54:00;;;;;;;24.53;21.93;;;21.00;52.90;;;;;;5039360;28;20940;-44
2022/08/28 03:56:28;;;;;;;23.47;21.67;;;21.00;52.70;;;;;;5051036;28;20418;-46
2022/08/28 03:58:56;;;;;;;23.10;21.23;;;21.10;52.70;;;;;;5037328;28;20422;-56
2022/08/28 04:01:22;;;;;;;22.40;20.70;;;21.10;52.50;;;;;;5037450;28;20433;-54
2022/08/28 04:03:48;;;;;;;23.07;21.30;;;21.10;52.40;;;;;;5040177;28;20461;-54
2022/08/28 04:06:15;;;;;;;23.87;21.97;;;21.10;51.90;;;;;;5056345;28;20176;-48
2022/08/28 04:08:41;;;;;;;22.83;21.03;;;21.10;51.90;;;;;;5048583;28;20409;-45
2022/08/28 04:11:07;;;;;;;23.13;21.23;;;21.10;52.20;;;;;;5055894;28;20517;-46
2022/08/28 04:13:33;;;;;;;22.27;20.63;;;21.10;52.00;;;;;;5056741;28;21002;-43
2022/08/28 04:16:09;;;;;;;23.13;21.30;;;21.00;51.70;;;;;;5042167;28;20429;-49
2022/08/28 04:18:36;;;;;;;22.47;20.70;;;21.00;51.80;;;;;;5052642;28;20188;-41
2022/08/28 04:21:06;;;;;;;22.67;20.97;;;21.10;51.40;;;;;;5045214;28;20479;-52
2022/08/28 04:23:33;;;;;;;22.03;20.33;;;21.00;51.30;;;;;;5050892;28;20464;-55
2022/08/28 04:25:59;;;;;;;22.30;19.90;;;21.00;51.30;;;;;;5055415;28;20472;-53
2022/08/28 04:28:25;;;;;;;22.67;20.87;;;21.00;51.70;;;;;;5056697;28;20902;-53
2022/08/28 04:30:56;;;;;;;22.90;21.20;;;21.00;51.80;;;;;;5038654;28;20222;-56
2022/08/28 04:33:23;;;;;;;21.13;19.53;;;20.90;52.50;;;;;;5074597;28;20470;-51
2022/08/28 04:35:48;;;;;;;21.70;19.97;;;20.90;52.10;;;;;;5055632;28;20446;-54
2022/08/28 04:38:14;;;;;;;23.60;21.53;;;21.00;51.30;;;;;;5051255;28;20441;-55
2022/08/28 04:40:40;;;;;;;22.37;20.57;;;21.00;51.30;;;;;;5047942;28;20225;-43
2022/08/28 04:43:06;;;;;;;24.17;22.37;;;21.00;51.30;;;;;;5056441;28;20655;-43
2022/08/28 04:45:37;;;;;;;21.67;19.87;;;21.00;51.30;;;;;;5056338;28;20562;-50
2022/08/28 04:48:04;;;;;;;22.43;20.57;;;21.00;51.30;;;;;;5071868;28;20441;-55
2022/08/28 04:50:29;;;;;;;22.60;20.43;;;21.00;51.30;;;;;;5049513;28;20519;-56
2022/08/28 04:52:55;;;;;;;22.67;20.80;;;21.00;51.40;;;;;;5047902;28;20435;-56
2022/08/28 04:55:21;;;;;;;20.97;19.37;;;21.00;51.30;;;;;;5056453;28;20551;-56
2022/08/28 04:57:47;;;;;;;21.77;20.13;;;21.00;51.30;;;;;;5050022;28;20446;-52
2022/08/28 05:00:13;;;;;;;22.47;20.57;;;21.00;51.30;;;;;;5043376;28;20616;-53
2022/08/28 05:02:39;;;;;;;21.23;19.73;;;21.00;51.30;;;;;;5054161;28;20548;-44
2022/08/28 05:05:04;;;;;;;22.03;20.37;;;21.00;51.30;;;;;;5051457;28;20535;-51
2022/08/28 05:07:31;;;;;;;22.20;20.50;;;21.00;51.30;;;;;;5052626;28;20180;-53
2022/08/28 05:09:56;;;;;;;23.03;21.23;;;21.00;51.30;;;;;;5036720;28;20176;-56
2022/08/28 05:12:22;;;;;;;24.13;22.10;;;21.10;51.40;;;;;;5035382;28;20829;-56
2022/08/28 05:14:48;;;;;;;24.23;22.17;;;21.10;51.40;;;;;;5046536;28;20551;-55
2022/08/28 05:17:14;;;;;;;23.97;21.27;;;21.00;51.30;;;;;;5049937;28;20584;-54
2022/08/28 05:19:41;;;;;;;22.80;20.73;;;21.00;51.50;;;;;;5051827;28;20420;-55
2022/08/28 05:22:08;;;;;;;21.30;19.70;;;20.90;51.20;;;;;;5051170;28;20211;-56
2022/08/28 05:24:39;;;;;;;22.40;20.70;;;21.00;51.40;;;;;;5043497;28;20540;-56
2022/08/28 05:27:06;;;;;;;23.03;21.13;;;21.00;51.70;;;;;;5045105;28;20839;-54
2022/08/28 05:29:32;;;;;;;21.00;19.47;;;21.00;51.40;;;;;;5050600;28;20456;-56
2022/08/28 05:31:58;;;;;;;21.13;19.03;;;21.00;51.30;;;;;;5055039;28;20894;-56
2022/08/28 05:34:23;;;;;;;21.80;19.80;;;21.00;51.30;;;;;;5054047;28;20499;-56
2022/08/28 05:36:49;;;;;;;21.07;19.47;;;21.00;51.30;;;;;;5047486;28;20202;-56
2022/08/28 05:39:16;;;;;;;21.93;20.07;;;21.00;51.30;;;;;;5048069;28;20183;-50
2022/08/28 05:41:43;;;;;;;21.83;20.23;;;21.00;51.30;;;;;;5054855;28;20278;-55
2022/08/28 05:44:11;;;;;;;22.63;21.03;;;21.00;51.70;;;;;;5071971;28;20610;-54
2022/08/28 05:46:41;;;;;;;22.00;20.10;;;21.00;51.30;;;;;;5048292;28;20502;-52
2022/08/28 05:49:07;;;;;;;23.90;21.77;;;21.00;51.30;;;;;;5059443;28;20828;-52
2022/08/28 05:51:34;;;;;;;22.27;20.17;;;21.00;51.30;;;;;;5050192;28;20466;-55
2022/08/28 05:54:01;;;;;;;23.30;21.43;;;21.00;51.30;;;;;;5051797;28;20433;-53
2022/08/28 05:56:33;;;;;;;23.53;21.73;;;21.00;51.30;;;;;;5070573;28;20429;-51
2022/08/28 05:59:00;;;;;;;22.60;20.87;;;21.00;51.30;;;;;;5053417;28;20529;-50
2022/08/28 06:01:29;;;;;;;21.67;20.17;;;21.00;51.50;;;;;;5051988;28;20439;-48
2022/08/28 06:03:58;;;;;;;22.63;20.90;;;21.00;51.80;;;;;;5044212;28;20856;-49
2022/08/28 06:06:26;;;;;;;24.70;22.33;;;21.00;52.00;;;;;;5038483;28;20481;-50
2022/08/28 06:09:00;;;;;;;23.43;21.73;;;21.00;51.90;;;;;;5044875;28;20465;-54
2022/08/28 06:11:30;;;;;;;22.93;21.10;;;21.00;51.50;;;;;;5052736;28;20437;-52
2022/08/28 06:14:00;;;;;;;23.60;21.60;;;21.00;51.40;;;;;;5052224;28;20409;-50
2022/08/28 06:16:26;;;;;;;21.40;19.80;;;20.90;51.70;;;;;;5041867;28;20585;-55
2022/08/28 06:18:51;;;;;;;22.03;20.33;;;20.90;51.70;;;;;;5045629;28;20425;-45
2022/08/28 06:21:17;;;;;;;22.80;20.87;;;20.90;51.60;;;;;;5049638;28;20271;-43
2022/08/28 06:23:43;;;;;;;20.83;19.13;;;21.00;51.30;;;;;;5042348;28;20249;-45
2022/08/28 06:26:09;;;;;;;20.97;19.37;;;21.00;51.30;;;;;;5035531;28;20739;-49
2022/08/28 06:28:35;;;;;;;21.60;19.97;;;21.00;51.50;;;;;;5042419;28;20582;-49
2022/08/28 06:31:03;;;;;;;21.90;20.20;;;21.00;51.30;;;;;;5034325;28;20426;-45
2022/08/28 06:33:29;;;;;;;21.50;19.90;;;21.00;52.00;;;;;;5061252;28;20183;-48
2022/08/28 06:35:55;;;;;;;19.83;18.53;;;21.10;51.40;;;;;;5044573;28;20486;-48
2022/08/28 06:38:24;;;;;;;20.30;18.70;;;21.10;51.40;;;;;;5048532;28;20410;-45
2022/08/28 06:40:55;;;;;;;20.77;19.40;;;21.10;50.80;;;;;;5033324;28;20479;-48
2022/08/28 06:43:23;;;;;;;19.90;18.60;;;21.00;48.80;;;;;;5034362;28;20426;-48
2022/08/28 06:45:53;;;;;;;20.43;18.90;;;20.90;49.60;;;;;;5051277;28;20937;-45
2022/08/28 06:48:21;;;;;;;21.10;19.70;;;20.90;48.70;;;;;;5052179;28;20436;-54
2022/08/28 06:50:49;;;;;;;20.13;18.73;;;21.00;49.90;;;;;;5039999;28;20438;-52
2022/08/28 06:53:16;;;;;;;23.00;21.07;;;21.00;49.80;;;;;;5053097;28;20426;-49
2022/08/28 06:55:42;;;;;;;21.67;19.87;;;21.00;50.30;;;;;;5051635;28;20835;-47
2022/08/28 06:58:10;;;;;;;20.97;19.30;;;21.10;50.60;;;;;;5051162;28;20552;-50
2022/08/28 07:00:36;;;;;;;21.93;20.33;;;21.10;50.60;;;;;;5052795;28;20520;-50
2022/08/28 07:03:06;;;;;;;22.37;20.57;;;21.10;50.70;;;;;;5053050;28;20417;-47
2022/08/28 07:05:32;;;;;;;22.07;20.43;;;21.10;51.00;;;;;;5050121;28;20659;-44
2022/08/28 07:07:59;;;;;;;21.40;19.83;;;21.10;50.60;;;;;;5050641;28;20409;-52
2022/08/28 07:10:27;;;;;;;21.50;19.83;;;21.10;50.50;;;;;;5041896;28;20410;-52
2022/08/28 07:12:53;;;;;;;22.07;20.00;;;21.00;50.80;;;;;;5051068;28;20437;-52
2022/08/28 07:15:18;;;;;;;20.20;18.47;;;21.10;50.30;;;;;;5049068;28;20426;-51
2022/08/28 07:17:44;;;;;;;20.30;18.80;;;21.10;49.60;;;;;;5051959;28;20189;-50
2022/08/28 07:20:10;;;;;;;19.63;18.20;;;21.10;48.50;;;;;;5052985;28;20549;-44
2022/08/28 07:22:39;;;;;;;19.20;17.97;;;21.10;47.50;;;;;;5046568;28;20989;-45
2022/08/28 07:25:06;;;;;;;21.07;19.47;;;21.00;48.20;;;;;;5045856;28;20469;-44
2022/08/28 07:27:32;;;;;;;20.47;19.17;;;20.90;48.40;;;;;;5051897;28;20431;-44
2022/08/28 07:29:58;;;;;;;20.07;18.53;;;20.90;49.00;;;;;;5047894;28;20428;-46
2022/08/28 07:32:24;;;;;;;20.30;18.60;;;20.90;48.90;;;;;;5051479;28;20175;-56
2022/08/28 07:34:50;;;;;;;21.30;19.60;;;21.00;48.30;;;;;;5065133;28;20264;-44
2022/08/28 07:37:16;;;;;;;18.73;17.50;;;21.10;47.90;;;;;;5046253;28;20434;-43
2022/08/28 07:39:43;;;;;;;18.67;17.57;;;21.10;47.80;;;;;;5047990;28;20229;-47
2022/08/28 07:42:09;;;;;;;21.00;19.37;;;21.20;47.40;;;;;;5047882;28;20426;-45
2022/08/28 07:44:49;;;;;;;19.70;18.50;;;21.20;47.20;;;;;;5046628;28;20465;-45
2022/08/28 07:47:17;;;;;;;20.40;18.87;;;21.20;47.20;;;;;;5046641;28;20756;-44
2022/08/28 07:49:43;;;;;;;19.90;18.50;;;21.30;47.40;;;;;;5052481;28;20532;-48
2022/08/28 07:52:10;;;;;;;19.97;18.60;;;21.30;46.90;;;;;;5070170;28;20791;-49
2022/08/28 07:54:39;;;;;;;19.60;18.30;;;21.30;46.80;;;;;;5069509;28;20529;-49
2022/08/28 07:57:08;;;;;;;20.07;18.87;;;21.30;46.80;;;;;;5049248;28;20441;-57
2022/08/28 07:59:35;;;;;;;20.57;19.17;;;21.20;46.80;;;;;;5047655;28;20438;-58
2022/08/28 08:02:01;;;;;;;19.57;18.17;;;21.20;46.70;;;;;;5069260;28;20433;-58
2022/08/28 08:04:26;;;;;;;20.00;18.50;;;21.30;46.70;;;;;;5049263;28;20511;-57
2022/08/28 08:06:52;;;;;;;19.57;18.30;;;21.30;46.60;;;;;;5042424;28;20525;-57
2022/08/28 08:09:19;;;;;;;19.53;17.80;;;21.40;46.80;;;;;;5051617;28;20188;-56
2022/08/28 08:11:46;;;;;;;19.93;18.43;;;21.40;46.60;;;;;;5051357;28;20515;-52
2022/08/28 08:14:12;;;;;;;20.10;18.70;;;21.30;46.50;;;;;;5051154;28;20445;-44
2022/08/28 08:16:42;;;;;;;19.70;18.20;;;21.20;46.80;;;;;;5046254;28;20437;-47
2022/08/28 08:19:09;;;;;;;18.93;17.73;;;21.30;47.20;;;;;;5049362;28;20797;-45
2022/08/28 08:21:35;;;;;;;21.17;19.07;;;21.30;47.20;;;;;;5055276;28;20434;-57
2022/08/28 08:24:01;;;;;;;19.70;18.20;;;21.40;47.00;;;;;;5040871;28;20454;-57
2022/08/28 08:26:28;;;;;;;20.63;19.27;;;21.40;46.60;;;;;;5050406;28;20938;-48
2022/08/28 08:28:55;;;;;;;20.40;19.00;;;21.40;46.40;;;;;;5054151;28;20430;-49
2022/08/28 08:31:21;;;;;;;21.00;19.40;;;21.50;46.30;;;;;;5055064;28;20559;-49
2022/08/28 08:33:49;;;;;;;19.37;18.03;;;21.40;46.30;;;;;;5055258;28;20967;-47
2022/08/28 08:36:17;;;;;;;20.73;19.23;;;21.40;46.70;;;;;;5052061;28;20188;-49
2022/08/28 08:38:43;;;;;;;20.87;19.17;;;21.40;46.60;;;;;;5042914;28;20583;-45
2022/08/28 08:41:32;;;;;;;18.80;17.50;;;21.40;46.20;;;;;;5055116;28;20586;-50
2022/08/28 08:44:01;;;;;;;19.93;18.70;;;21.40;46.00;;;;;;5054395;28;20461;-49
2022/08/28 08:46:38;;;;;;;19.67;18.47;;;21.30;46.40;;;;;;5052231;28;20782;-51
2022/08/28 08:49:12;;;;;;;20.03;18.73;;;21.40;46.50;;;;;;5052253;28;20413;-49
2022/08/28 08:51:46;;;;;;;20.30;18.80;;;21.40;45.90;;;;;;5048429;28;20774;-49
2022/08/28 08:54:15;;;;;;;19.80;18.10;;;21.50;45.80;;;;;;5050401;28;20518;-46
2022/08/28 08:56:42;;;;;;;19.87;18.37;;;21.60;45.50;;;;;;5055255;28;20436;-46
2022/08/28 08:59:20;;;;;;;19.97;18.77;;;21.60;45.40;;;;;;5044577;28;20427;-45
2022/08/28 09:02:09;;;;;;;20.20;18.90;;;21.60;45.10;;;;;;5055224;28;20516;-44
2022/08/28 09:05:06;;;;;;;20.20;18.50;;;21.60;44.80;;;;;;5055783;28;20461;-46
2022/08/28 09:08:01;;;;;;;19.77;18.40;;;21.40;45.10;;;;;;5040984;28;20892;-48
2022/08/28 09:10:36;;;;;;;25.17;23.27;;;21.40;45.20;;;;;;5051293;28;20405;-45
2022/08/28 09:13:13;;;;;;;21.63;20.17;;;21.40;45.70;;;;;;5063946;28;20950;-44
2022/08/28 09:15:45;;;;;;;21.27;19.80;;;21.40;45.20;;;;;;5072635;28;20409;-43
2022/08/28 09:18:23;;;;;;;21.33;19.20;;;21.40;45.10;;;;;;5056075;28;20398;-57
2022/08/28 09:20:51;;;;;;;19.50;18.23;;;21.50;45.30;;;;;;5056144;28;20475;-58
2022/08/28 09:23:17;;;;;;;20.00;18.47;;;21.50;45.60;;;;;;5056155;28;20409;-58
2022/08/28 09:25:43;;;;;;;20.77;19.37;;;21.60;45.00;;;;;;5074107;28;20405;-58
2022/08/28 09:28:13;;;;;;;19.80;18.30;;;21.70;44.20;;;;;;5054972;28;20420;-58
2022/08/28 09:30:41;;;;;;;20.30;18.70;;;21.70;43.80;;;;;;5055824;28;20179;-58
2022/08/28 09:33:07;;;;;;;19.87;18.33;;;21.70;44.10;;;;;;5055846;28;20414;-57
2022/08/28 09:35:38;;;;;;;20.47;19.03;;;21.70;45.10;;;;;;5073811;28;20513;-56
2022/08/28 09:38:22;;;;;;;19.13;17.63;;;21.70;44.60;;;;;;5055596;28;20182;-60
2022/08/28 09:43:50;;;;;;;20.00;18.30;;;21.80;44.40;;;;;;5031042;28;20481;-58
2022/08/28 09:46:28;;;;;;;19.70;18.30;;;21.90;44.10;;;;;;5046911;28;20418;-58
2022/08/28 09:49:08;;;;;;;20.00;18.33;;;22.00;43.50;;;;;;5055278;28;20414;-59
2022/08/28 09:51:37;;;;;;;18.70;17.17;;;22.10;43.30;;;;;;5073275;28;20413;-59
2022/08/28 09:54:34;;;;;;;18.53;17.23;;;22.00;43.50;;;;;;5055143;28;20413;-58
2022/08/28 09:57:02;;;;;;;17.97;16.77;;;22.10;43.30;;;;;;5047671;28;20422;-58
2022/08/28 09:59:28;;;;;;;18.90;17.60;;;22.20;42.80;;;;;;5055230;28;20457;-58
2022/08/28 10:02:18;;;;;;;18.17;16.87;;;22.20;42.20;;;;;;5054966;28;20475;-59
2022/08/28 10:05:07;;;;;;;18.07;16.93;;;22.20;42.20;;;;;;5072929;28;20453;-60
2022/08/28 10:07:55;;;;;;;20.63;19.10;;;22.20;42.20;;;;;;5055060;28;20812;-59
2022/08/28 10:10:32;;;;;;;17.73;16.70;;;22.30;41.90;;;;;;5072740;28;20409;-59
2022/08/28 10:13:19;;;;;;;17.40;16.30;;;22.30;42.30;;;;;;5054823;28;20824;-59
2022/08/28 10:16:23;;;;;;;18.10;17.00;;;22.40;41.40;;;;;;5054738;28;20410;-59
2022/08/28 10:18:56;;;;;;;18.67;17.30;;;22.40;41.00;;;;;;5054864;28;20409;-58
2022/08/28 10:21:31;;;;;;;18.50;17.10;;;22.30;41.30;;;;;;5054617;28;20413;-59
2022/08/28 10:24:39;;;;;;;18.97;17.63;;;22.30;41.30;;;;;;5054578;28;20456;-58
2022/08/28 10:27:21;;;;;;;18.57;17.37;;;22.30;41.00;;;;;;5060630;28;20417;-58
2022/08/28 10:30:12;;;;;;;18.00;16.80;;;22.30;40.50;;;;;;5072537;28;20433;-59
2022/08/28 10:33:12;;;;;;;17.17;16.10;;;22.40;40.70;;;;;;5054560;28;20500;-50
2022/08/28 10:35:43;;;;;;;18.87;17.57;;;22.50;38.30;;;;;;5054444;28;20437;-46
2022/08/28 10:38:16;;;;;;;16.93;15.70;;;22.60;38.60;;;;;;5054415;28;20445;-46
2022/08/28 10:41:05;;;;;;;17.97;16.83;;;22.70;39.10;;;;;;5054543;28;20418;-59
2022/08/28 10:43:45;;;;;;;17.17;16.07;;;22.90;37.70;;;;;;5054328;28;20460;-57
2022/08/28 10:46:35;;;;;;;16.33;15.40;;;23.00;37.30;;;;;;5054393;28;20420;-58
2022/08/28 10:49:09;;;;;;;19.30;16.70;;;23.00;36.50;;;;;;5054270;28;20463;-57
2022/08/28 10:51:47;;;;;;;16.40;15.50;;;23.10;37.00;;;;;;5054098;28;20412;-59
2022/08/28 10:54:32;;;;;;;18.60;17.20;;;23.20;37.10;;;;;;5054234;28;20428;-59
2022/08/28 10:57:01;;;;;;;19.00;17.40;;;23.20;35.60;;;;;;5054198;28;20416;-58
2022/08/28 10:59:31;;;;;;;17.33;16.00;;;23.20;36.10;;;;;;5054279;28;20762;-58
2022/08/28 11:01:58;;;;;;;16.53;15.33;;;23.20;36.00;;;;;;5054086;28;20463;-60
2022/08/28 11:04:26;;;;;;;16.00;15.10;;;23.20;36.50;;;;;;5054118;28;20676;-59
2022/08/28 11:07:11;;;;;;;16.30;15.20;;;23.10;34.20;;;;;;5054247;28;20792;-58
2022/08/28 11:09:44;;;;;;;16.67;15.67;;;23.10;34.70;;;;;;5053977;28;20414;-59
2022/08/28 11:12:18;;;;;;;16.23;15.13;;;23.10;35.30;;;;;;5053796;28;20800;-59
2022/08/28 11:14:49;;;;;;;16.33;14.83;;;23.20;35.70;;;;;;5054046;28;20776;-57
2022/08/28 11:17:24;;;;;;;17.30;16.17;;;23.20;35.70;;;;;;5054028;28;20908;-46
2022/08/28 11:20:11;;;;;;;16.50;15.30;;;23.20;35.80;;;;;;5053897;28;20421;-46
2022/08/28 11:22:44;;;;;;;17.63;16.43;;;23.30;35.70;;;;;;5053868;28;20413;-45
2022/08/28 11:25:21;;;;;;;17.40;16.20;;;23.30;35.70;;;;;;5053993;28;20515;-44
2022/08/28 11:28:13;;;;;;;15.27;14.27;;;23.30;36.20;;;;;;5053938;28;20778;-43
2022/08/28 11:30:39;;;;;;;16.67;15.47;;;23.30;35.00;;;;;;5053796;28;20492;-46
2022/08/28 11:33:39;;;;;;;17.60;16.20;;;23.30;34.70;;;;;;5053706;28;20512;-47
2022/08/28 11:36:18;;;;;;;29.23;23.70;;;23.40;34.80;;;;;;5053760;28;20475;-49
2022/08/28 11:38:43;;;;;;;42.40;32.90;;;23.50;34.30;;;;;;5053779;28;20417;-45
2022/08/28 11:41:20;;;;;;;29.83;24.93;;;23.50;32.20;;;;;;5053610;28;20413;-46
2022/08/28 11:43:48;;;;;;;20.63;18.87;;;23.60;32.10;;;;;;5071562;28;20195;-45
2022/08/28 11:46:31;;;;;;;124.03;59.40;;;23.60;31.20;;;;;;5053697;28;20409;-44
2022/08/28 11:49:04;;;;;;;28.60;22.20;;;23.60;31.90;;;;;;5053586;28;20566;-44
2022/08/28 11:52:09;;;;;;;18.00;16.93;;;23.60;32.30;;;;;;5055689;28;20422;-47
2022/08/28 11:54:44;;;;;;;19.30;18.10;;;23.70;32.00;;;;;;5057612;28;20420;-45
2022/08/28 11:57:21;;;;;;;17.67;16.27;;;23.80;32.40;;;;;;5057418;28;20742;-46
2022/08/28 11:59:59;;;;;;;17.87;16.87;;;23.80;32.40;;;;;;5057311;28;20413;-45
2022/08/28 12:02:44;;;;;;;18.07;16.73;;;23.80;31.30;;;;;;5057418;28;20421;-48
2022/08/28 12:05:30;;;;;;;16.40;15.40;;;23.90;31.50;;;;;;5057388;28;20453;-46
2022/08/28 12:07:57;;;;;;;15.40;14.60;;;23.80;30.40;;;;;;5075221;28;20417;-44
2022/08/28 12:10:25;;;;;;;17.57;16.57;;;23.90;30.20;;;;;;5057263;28;20401;-48
2022/08/28 12:13:04;;;;;;;16.30;15.30;;;23.90;29.80;;;;;;5057148;28;20401;-45
2022/08/28 12:15:30;;;;;;;15.97;15.03;;;23.90;29.50;;;;;;5057215;28;20474;-45
2022/08/28 12:18:05;;;;;;;16.47;15.57;;;23.80;29.30;;;;;;5057145;28;20918;-58
2022/08/28 12:21:03;;;;;;;15.37;14.53;;;23.70;29.40;;;;;;5056988;28;20667;-43
2022/08/28 12:23:55;;;;;;;16.53;15.53;;;23.80;29.90;;;;;;5049419;28;20425;-46
2022/08/28 12:26:34;;;;;;;16.20;15.30;;;23.80;30.00;;;;;;5043155;28;20402;-45
2022/08/28 12:29:00;;;;;;;15.93;14.93;;;23.80;30.20;;;;;;5056874;28;20422;-59
2022/08/28 12:34:29;;;;;;;17.03;16.03;;;23.80;30.00;;;;;;5075107;28;20226;-58
2022/08/28 12:36:57;;;;;;;16.47;15.53;;;23.90;29.60;;;;;;5056959;28;20414;-59
2022/08/28 12:39:23;;;;;;;16.93;15.93;;;23.90;29.70;;;;;;5056658;28;20424;-50
2022/08/28 12:41:49;;;;;;;17.93;16.60;;;23.80;29.60;;;;;;5056508;28;20420;-46
2022/08/28 12:44:15;;;;;;;17.70;16.60;;;23.80;30.50;;;;;;5056437;28;20563;-45
2022/08/28 12:46:42;;;;;;;17.40;16.17;;;23.80;31.60;;;;;;5056395;28;20241;-44
2022/08/28 12:49:28;;;;;;;16.90;15.90;;;23.90;31.30;;;;;;5056504;28;20183;-46